Lake City, California
Current Conditions -  °F | °C
As of 9:55 PM on Tuesday 25 Nov 2014 (Local Time) from KAAT Reporting Station
Haze Haze  
Wind Chill: 32°   Ceiling: Unl
Heat Index: 32°   Visibility: 5mi
Dew Point: 29°   Wind: 0mph
Humidity: 88%   Direction: NA
Pressure: 30.44"   Gusts: NA
Location:  41.64°N, 120.22°W
Report Text: KAAT 260555Z AUTO 00000KT 5SM BR CLR 00/M02 A3044 RMK AO2 SLP316 T00001017 10111 21006 50000 $
Loading
Personal Weather Stations






























Interactive Weather Map New forecast layout! Learn more

10-Day Weather Forecast

Advertisements
Track Severe Weather on mobile